sensor_id;sensor_type;location;lat;lon;timestamp;P1;durP1;ratioP1;P2;durP2;ratioP2
45318;SDS011;31057;48.498;32.260;2022-11-04T00:00:21;25.00;;;17.50;;
45318;SDS011;31057;48.498;32.260;2022-11-04T02:17:41;36.28;;;26.27;;
45318;SDS011;31057;48.498;32.260;2022-11-04T02:27:15;52.67;;;31.58;;
45318;SDS011;31057;48.498;32.260;2022-11-04T02:31:50;48.45;;;30.13;;
45318;SDS011;31057;48.498;32.260;2022-11-04T02:37:07;47.83;;;30.65;;
45318;SDS011;31057;48.498;32.260;2022-11-04T02:39:18;48.78;;;32.33;;
45318;SDS011;31057;48.498;32.260;2022-11-04T02:41:40;49.92;;;32.80;;
45318;SDS011;31057;48.498;32.260;2022-11-04T02:46:23;48.95;;;31.88;;
45318;SDS011;31057;48.498;32.260;2022-11-04T02:53:15;48.28;;;30.00;;
45318;SDS011;31057;48.498;32.260;2022-11-04T02:55:34;48.33;;;29.77;;
45318;SDS011;31057;48.498;32.260;2022-11-04T02:57:43;45.83;;;29.75;;
45318;SDS011;31057;48.498;32.260;2022-11-04T02:59:59;50.47;;;29.77;;
45318;SDS011;31057;48.498;32.260;2022-11-04T03:02:07;47.72;;;30.73;;
45318;SDS011;31057;48.498;32.260;2022-11-04T03:04:15;49.85;;;30.60;;
45318;SDS011;31057;48.498;32.260;2022-11-04T03:06:22;48.55;;;29.75;;
45318;SDS011;31057;48.498;32.260;2022-11-04T03:08:29;46.33;;;28.85;;
45318;SDS011;31057;48.498;32.260;2022-11-04T03:10:37;45.40;;;28.98;;
45318;SDS011;31057;48.498;32.260;2022-11-04T03:12:52;53.13;;;29.20;;
45318;SDS011;31057;48.498;32.260;2022-11-04T03:15:00;39.50;;;26.63;;
45318;SDS011;31057;48.498;32.260;2022-11-04T03:17:16;46.47;;;28.73;;
45318;SDS011;31057;48.498;32.260;2022-11-04T03:22:01;47.85;;;29.48;;
45318;SDS011;31057;48.498;32.260;2022-11-04T03:24:07;50.50;;;30.67;;
45318;SDS011;31057;48.498;32.260;2022-11-04T03:26:14;43.00;;;29.23;;
45318;SDS011;31057;48.498;32.260;2022-11-04T03:28:45;53.33;;;32.00;;
45318;SDS011;31057;48.498;32.260;2022-11-04T03:30:50;48.80;;;30.52;;
45318;SDS011;31057;48.498;32.260;2022-11-04T03:33:44;54.58;;;30.52;;
45318;SDS011;31057;48.498;32.260;2022-11-04T03:35:24;52.30;;;31.52;;
45318;SDS011;31057;48.498;32.260;2022-11-04T03:37:28;52.92;;;31.10;;
45318;SDS011;31057;48.498;32.260;2022-11-04T03:39:30;53.03;;;32.00;;
45318;SDS011;31057;48.498;32.260;2022-11-04T03:41:35;52.30;;;33.40;;
45318;SDS011;31057;48.498;32.260;2022-11-04T03:43:42;54.58;;;32.75;;
45318;SDS011;31057;48.498;32.260;2022-11-04T03:45:44;54.90;;;32.35;;
45318;SDS011;31057;48.498;32.260;2022-11-04T03:47:46;56.95;;;33.13;;
45318;SDS011;31057;48.498;32.260;2022-11-04T03:49:51;56.17;;;35.58;;
45318;SDS011;31057;48.498;32.260;2022-11-04T03:52:06;60.95;;;35.20;;
45318;SDS011;31057;48.498;32.260;2022-11-04T03:54:09;59.13;;;34.55;;
45318;SDS011;31057;48.498;32.260;2022-11-04T04:00:40;55.08;;;34.75;;
45318;SDS011;31057;48.498;32.260;2022-11-04T04:05:21;38.58;;;28.08;;
45318;SDS011;31057;48.498;32.260;2022-11-04T04:07:31;42.45;;;27.77;;
45318;SDS011;31057;48.498;32.260;2022-11-04T04:09:38;50.08;;;32.15;;
45318;SDS011;31057;48.498;32.260;2022-11-04T04:11:43;41.25;;;29.05;;
45318;SDS011;31057;48.498;32.260;2022-11-04T04:16:41;50.90;;;28.23;;
45318;SDS011;31057;48.498;32.260;2022-11-04T04:18:49;49.95;;;28.10;;
45318;SDS011;31057;48.498;32.260;2022-11-04T04:20:59;37.92;;;26.13;;
45318;SDS011;31057;48.498;32.260;2022-11-04T04:23:05;42.60;;;26.15;;
45318;SDS011;31057;48.498;32.260;2022-11-04T04:25:31;44.90;;;26.88;;
45318;SDS011;31057;48.498;32.260;2022-11-04T04:27:52;45.00;;;26.13;;
45318;SDS011;31057;48.498;32.260;2022-11-04T04:30:06;35.00;;;23.23;;
45318;SDS011;31057;48.498;32.260;2022-11-04T04:32:10;38.15;;;25.15;;
45318;SDS011;31057;48.498;32.260;2022-11-04T04:34:18;42.60;;;25.55;;
45318;SDS011;31057;48.498;32.260;2022-11-04T04:36:22;31.83;;;23.05;;
45318;SDS011;31057;48.498;32.260;2022-11-04T04:38:25;44.08;;;27.73;;
45318;SDS011;31057;48.498;32.260;2022-11-04T04:40:58;36.65;;;24.67;;
45318;SDS011;31057;48.498;32.260;2022-11-04T04:43:28;49.03;;;26.85;;
45318;SDS011;31057;48.498;32.260;2022-11-04T04:45:49;41.85;;;28.05;;
45318;SDS011;31057;48.498;32.260;2022-11-04T04:47:53;44.97;;;29.40;;
45318;SDS011;31057;48.498;32.260;2022-11-04T04:49:57;55.97;;;32.53;;
45318;SDS011;31057;48.498;32.260;2022-11-04T04:52:01;41.00;;;29.73;;
45318;SDS011;31057;48.498;32.260;2022-11-04T04:54:04;49.60;;;31.45;;
45318;SDS011;31057;48.498;32.260;2022-11-04T04:56:07;45.70;;;30.92;;
45318;SDS011;31057;48.498;32.260;2022-11-04T04:58:09;43.38;;;29.25;;
45318;SDS011;31057;48.498;32.260;2022-11-04T05:00:15;42.08;;;29.55;;
45318;SDS011;31057;48.498;32.260;2022-11-04T05:02:19;44.63;;;30.17;;
45318;SDS011;31057;48.498;32.260;2022-11-04T05:06:23;42.30;;;28.43;;
45318;SDS011;31057;48.498;32.260;2022-11-04T05:08:24;51.13;;;33.55;;
45318;SDS011;31057;48.498;32.260;2022-11-04T05:10:26;45.67;;;32.42;;
45318;SDS011;31057;48.498;32.260;2022-11-04T05:12:28;40.50;;;31.02;;
45318;SDS011;31057;48.498;32.260;2022-11-04T05:14:50;42.00;;;31.20;;
45318;SDS011;31057;48.498;32.260;2022-11-04T05:16:52;44.40;;;32.00;;
45318;SDS011;31057;48.498;32.260;2022-11-04T05:18:54;43.22;;;31.38;;
45318;SDS011;31057;48.498;32.260;2022-11-04T05:20:56;51.92;;;36.00;;
45318;SDS011;31057;48.498;32.260;2022-11-04T05:22:58;55.53;;;38.90;;
45318;SDS011;31057;48.498;32.260;2022-11-04T05:25:00;65.40;;;39.95;;
45318;SDS011;31057;48.498;32.260;2022-11-04T05:27:02;66.30;;;41.80;;
45318;SDS011;31057;48.498;32.260;2022-11-04T05:29:04;60.67;;;39.80;;
45318;SDS011;31057;48.498;32.260;2022-11-04T05:31:06;51.47;;;36.75;;
45318;SDS011;31057;48.498;32.260;2022-11-04T05:35:10;51.72;;;37.28;;
45318;SDS011;31057;48.498;32.260;2022-11-04T05:37:12;56.38;;;42.55;;
45318;SDS011;31057;48.498;32.260;2022-11-04T05:39:14;59.83;;;45.45;;
45318;SDS011;31057;48.498;32.260;2022-11-04T05:41:16;63.10;;;51.45;;
45318;SDS011;31057;48.498;32.260;2022-11-04T05:43:26;80.30;;;53.28;;
45318;SDS011;31057;48.498;32.260;2022-11-04T05:45:28;61.88;;;47.53;;
45318;SDS011;31057;48.498;32.260;2022-11-04T05:47:30;70.78;;;49.38;;
45318;SDS011;31057;48.498;32.260;2022-11-04T05:49:32;69.20;;;50.38;;
45318;SDS011;31057;48.498;32.260;2022-11-04T05:51:34;56.70;;;47.30;;
45318;SDS011;31057;48.498;32.260;2022-11-04T05:53:36;67.50;;;47.75;;
45318;SDS011;31057;48.498;32.260;2022-11-04T05:55:38;52.92;;;42.97;;
45318;SDS011;31057;48.498;32.260;2022-11-04T05:57:40;61.38;;;43.92;;
45318;SDS011;31057;48.498;32.260;2022-11-04T05:59:42;56.17;;;43.38;;
45318;SDS011;31057;48.498;32.260;2022-11-04T08:16:06;39.67;;;28.17;;
45318;SDS011;31057;48.498;32.260;2022-11-04T08:18:12;38.90;;;29.05;;
45318;SDS011;31057;48.498;32.260;2022-11-04T08:20:14;41.33;;;29.92;;
45318;SDS011;31057;48.498;32.260;2022-11-04T08:22:16;53.38;;;38.05;;
45318;SDS011;31057;48.498;32.260;2022-11-04T08:24:18;63.95;;;43.95;;
45318;SDS011;31057;48.498;32.260;2022-11-04T08:26:21;66.97;;;47.83;;
45318;SDS011;31057;48.498;32.260;2022-11-04T08:28:23;59.85;;;38.03;;
45318;SDS011;31057;48.498;32.260;2022-11-04T08:30:26;62.45;;;43.95;;
45318;SDS011;31057;48.498;32.260;2022-11-04T08:32:28;70.57;;;53.08;;
45318;SDS011;31057;48.498;32.260;2022-11-04T08:34:30;79.28;;;53.75;;
45318;SDS011;31057;48.498;32.260;2022-11-04T08:36:32;85.53;;;59.17;;
45318;SDS011;31057;48.498;32.260;2022-11-04T08:38:36;60.15;;;39.55;;
45318;SDS011;31057;48.498;32.260;2022-11-04T08:40:38;54.92;;;38.10;;
45318;SDS011;31057;48.498;32.260;2022-11-04T08:42:40;64.13;;;40.58;;
45318;SDS011;31057;48.498;32.260;2022-11-04T08:44:42;64.80;;;46.08;;
45318;SDS011;31057;48.498;32.260;2022-11-04T08:46:45;65.00;;;42.60;;
45318;SDS011;31057;48.498;32.260;2022-11-04T08:48:47;55.65;;;31.55;;
45318;SDS011;31057;48.498;32.260;2022-11-04T08:50:53;52.00;;;30.70;;
45318;SDS011;31057;48.498;32.260;2022-11-04T08:52:56;45.90;;;29.00;;
45318;SDS011;31057;48.498;32.260;2022-11-04T08:57:00;50.88;;;31.02;;
45318;SDS011;31057;48.498;32.260;2022-11-04T08:59:02;52.35;;;30.55;;
45318;SDS011;31057;48.498;32.260;2022-11-04T09:01:05;57.00;;;38.33;;
45318;SDS011;31057;48.498;32.260;2022-11-04T09:03:07;66.18;;;41.38;;
45318;SDS011;31057;48.498;32.260;2022-11-04T09:05:10;46.15;;;31.92;;
45318;SDS011;31057;48.498;32.260;2022-11-04T09:07:12;54.03;;;31.35;;
45318;SDS011;31057;48.498;32.260;2022-11-04T09:09:14;55.08;;;38.45;;
45318;SDS011;31057;48.498;32.260;2022-11-04T09:11:17;49.13;;;36.35;;
45318;SDS011;31057;48.498;32.260;2022-11-04T09:13:19;48.15;;;32.05;;
45318;SDS011;31057;48.498;32.260;2022-11-04T09:15:21;44.30;;;27.95;;
45318;SDS011;31057;48.498;32.260;2022-11-04T09:17:23;41.80;;;26.95;;
45318;SDS011;31057;48.498;32.260;2022-11-04T09:19:25;44.38;;;26.85;;
45318;SDS011;31057;48.498;32.260;2022-11-04T09:21:27;44.67;;;32.25;;
45318;SDS011;31057;48.498;32.260;2022-11-04T09:23:29;45.88;;;32.33;;
45318;SDS011;31057;48.498;32.260;2022-11-04T09:25:32;44.15;;;31.50;;
45318;SDS011;31057;48.498;32.260;2022-11-04T09:27:34;42.38;;;30.98;;
45318;SDS011;31057;48.498;32.260;2022-11-04T09:29:36;42.03;;;30.63;;
45318;SDS011;31057;48.498;32.260;2022-11-04T09:31:38;30.02;;;23.23;;
45318;SDS011;31057;48.498;32.260;2022-11-04T09:35:42;24.80;;;19.52;;
45318;SDS011;31057;48.498;32.260;2022-11-04T09:37:44;26.52;;;20.13;;
45318;SDS011;31057;48.498;32.260;2022-11-04T09:39:46;23.88;;;19.17;;
45318;SDS011;31057;48.498;32.260;2022-11-04T09:44:47;26.33;;;19.90;;
45318;SDS011;31057;48.498;32.260;2022-11-04T09:47:21;22.45;;;18.50;;
45318;SDS011;31057;48.498;32.260;2022-11-04T09:49:25;27.67;;;20.63;;
45318;SDS011;31057;48.498;32.260;2022-11-04T09:51:30;25.92;;;20.52;;
45318;SDS011;31057;48.498;32.260;2022-11-04T09:56:00;23.02;;;20.45;;
45318;SDS011;31057;48.498;32.260;2022-11-04T09:58:07;24.92;;;18.77;;
45318;SDS011;31057;48.498;32.260;2022-11-04T10:00:14;24.23;;;18.95;;
45318;SDS011;31057;48.498;32.260;2022-11-04T10:02:26;24.02;;;19.30;;
45318;SDS011;31057;48.498;32.260;2022-11-04T10:07:37;22.90;;;18.55;;
45318;SDS011;31057;48.498;32.260;2022-11-04T10:16:30;25.80;;;21.15;;
45318;SDS011;31057;48.498;32.260;2022-11-04T10:23:42;19.60;;;16.73;;
45318;SDS011;31057;48.498;32.260;2022-11-04T10:28:01;22.38;;;17.05;;
45318;SDS011;31057;48.498;32.260;2022-11-04T10:30:20;24.50;;;18.38;;
45318;SDS011;31057;48.498;32.260;2022-11-04T10:32:27;22.73;;;17.13;;
45318;SDS011;31057;48.498;32.260;2022-11-04T10:34:52;19.75;;;17.25;;
45318;SDS011;31057;48.498;32.260;2022-11-04T10:37:00;22.60;;;18.38;;
45318;SDS011;31057;48.498;32.260;2022-11-04T10:39:03;26.73;;;17.83;;
45318;SDS011;31057;48.498;32.260;2022-11-04T10:43:35;19.00;;;16.67;;
45318;SDS011;31057;48.498;32.260;2022-11-04T10:45:41;20.90;;;17.50;;
45318;SDS011;31057;48.498;32.260;2022-11-04T10:48:21;24.30;;;18.98;;
45318;SDS011;31057;48.498;32.260;2022-11-04T10:50:33;25.83;;;19.88;;
45318;SDS011;31057;48.498;32.260;2022-11-04T10:52:41;25.50;;;19.67;;
45318;SDS011;31057;48.498;32.260;2022-11-04T10:56:48;24.38;;;18.27;;
45318;SDS011;31057;48.498;32.260;2022-11-04T10:58:51;23.33;;;17.02;;
45318;SDS011;31057;48.498;32.260;2022-11-04T11:00:55;19.58;;;16.88;;
45318;SDS011;31057;48.498;32.260;2022-11-04T11:02:58;22.00;;;15.70;;
45318;SDS011;31057;48.498;32.260;2022-11-04T11:05:14;21.23;;;15.93;;
45318;SDS011;31057;48.498;32.260;2022-11-04T11:07:23;20.20;;;15.38;;
45318;SDS011;31057;48.498;32.260;2022-11-04T11:11:45;24.83;;;16.33;;
45318;SDS011;31057;48.498;32.260;2022-11-04T11:13:49;21.85;;;16.30;;
45318;SDS011;31057;48.498;32.260;2022-11-04T11:16:03;19.88;;;16.42;;
45318;SDS011;31057;48.498;32.260;2022-11-04T11:18:12;23.15;;;15.23;;
45318;SDS011;31057;48.498;32.260;2022-11-04T11:20:20;21.35;;;16.73;;
45318;SDS011;31057;48.498;32.260;2022-11-04T11:22:39;17.65;;;15.80;;
45318;SDS011;31057;48.498;32.260;2022-11-04T11:24:43;17.10;;;14.95;;
45318;SDS011;31057;48.498;32.260;2022-11-04T11:26:45;16.02;;;13.65;;
45318;SDS011;31057;48.498;32.260;2022-11-04T11:28:51;19.73;;;15.65;;
45318;SDS011;31057;48.498;32.260;2022-11-04T11:31:03;25.15;;;16.38;;
45318;SDS011;31057;48.498;32.260;2022-11-04T11:33:16;18.02;;;15.35;;
45318;SDS011;31057;48.498;32.260;2022-11-04T11:35:35;21.20;;;16.33;;
45318;SDS011;31057;48.498;32.260;2022-11-04T11:37:44;17.10;;;15.30;;
45318;SDS011;31057;48.498;32.260;2022-11-04T11:39:47;23.15;;;15.93;;
45318;SDS011;31057;48.498;32.260;2022-11-04T11:44:01;19.02;;;15.00;;
45318;SDS011;31057;48.498;32.260;2022-11-04T11:46:51;22.65;;;16.48;;
45318;SDS011;31057;48.498;32.260;2022-11-04T11:48:51;19.80;;;15.25;;
45318;SDS011;31057;48.498;32.260;2022-11-04T11:50:55;20.73;;;15.10;;
45318;SDS011;31057;48.498;32.260;2022-11-04T11:53:21;20.77;;;14.95;;
45318;SDS011;31057;48.498;32.260;2022-11-04T11:55:28;20.33;;;15.00;;
45318;SDS011;31057;48.498;32.260;2022-11-04T12:00:21;15.52;;;12.98;;
45318;SDS011;31057;48.498;32.260;2022-11-04T14:18:56;30.70;;;27.13;;
45318;SDS011;31057;48.498;32.260;2022-11-04T14:21:16;33.13;;;26.92;;
45318;SDS011;31057;48.498;32.260;2022-11-04T14:23:21;37.30;;;26.88;;
45318;SDS011;31057;48.498;32.260;2022-11-04T14:27:39;40.05;;;29.45;;
45318;SDS011;31057;48.498;32.260;2022-11-04T14:29:46;36.97;;;28.05;;
45318;SDS011;31057;48.498;32.260;2022-11-04T14:32:13;53.10;;;35.20;;
45318;SDS011;31057;48.498;32.260;2022-11-04T14:34:24;58.05;;;42.97;;
45318;SDS011;31057;48.498;32.260;2022-11-04T14:36:38;77.32;;;54.30;;
45318;SDS011;31057;48.498;32.260;2022-11-04T14:39:06;79.25;;;54.13;;
45318;SDS011;31057;48.498;32.260;2022-11-04T14:41:47;65.93;;;43.38;;
45318;SDS011;31057;48.498;32.260;2022-11-04T14:43:50;56.60;;;42.95;;
45318;SDS011;31057;48.498;32.260;2022-11-04T14:46:00;53.40;;;36.40;;
45318;SDS011;31057;48.498;32.260;2022-11-04T14:48:09;50.88;;;37.80;;
45318;SDS011;31057;48.498;32.260;2022-11-04T14:50:36;51.70;;;38.53;;
45318;SDS011;31057;48.498;32.260;2022-11-04T14:52:47;42.92;;;34.75;;
45318;SDS011;31057;48.498;32.260;2022-11-04T14:54:57;57.80;;;38.50;;
45318;SDS011;31057;48.498;32.260;2022-11-04T14:59:36;62.63;;;43.03;;
45318;SDS011;31057;48.498;32.260;2022-11-04T15:01:38;69.40;;;47.60;;
45318;SDS011;31057;48.498;32.260;2022-11-04T15:04:13;70.85;;;45.83;;
45318;SDS011;31057;48.498;32.260;2022-11-04T15:06:27;72.68;;;50.30;;
45318;SDS011;31057;48.498;32.260;2022-11-04T15:08:47;78.05;;;53.58;;
45318;SDS011;31057;48.498;32.260;2022-11-04T15:10:49;83.47;;;58.13;;
45318;SDS011;31057;48.498;32.260;2022-11-04T15:12:52;88.90;;;57.90;;
45318;SDS011;31057;48.498;32.260;2022-11-04T15:15:19;82.30;;;58.53;;
45318;SDS011;31057;48.498;32.260;2022-11-04T15:17:45;89.20;;;60.65;;
45318;SDS011;31057;48.498;32.260;2022-11-04T15:20:14;91.60;;;61.75;;
45318;SDS011;31057;48.498;32.260;2022-11-04T15:22:29;92.78;;;62.47;;
45318;SDS011;31057;48.498;32.260;2022-11-04T15:24:34;96.95;;;59.60;;
45318;SDS011;31057;48.498;32.260;2022-11-04T15:26:36;94.03;;;61.38;;
45318;SDS011;31057;48.498;32.260;2022-11-04T15:28:40;91.10;;;60.08;;
45318;SDS011;31057;48.498;32.260;2022-11-04T15:31:04;87.40;;;61.90;;
45318;SDS011;31057;48.498;32.260;2022-11-04T15:33:17;86.05;;;62.00;;
45318;SDS011;31057;48.498;32.260;2022-11-04T15:35:19;87.15;;;57.92;;
45318;SDS011;31057;48.498;32.260;2022-11-04T15:37:35;74.78;;;54.05;;
45318;SDS011;31057;48.498;32.260;2022-11-04T15:39:44;76.40;;;53.05;;
45318;SDS011;31057;48.498;32.260;2022-11-04T15:41:49;81.80;;;55.88;;
45318;SDS011;31057;48.498;32.260;2022-11-04T15:44:14;71.97;;;52.88;;
45318;SDS011;31057;48.498;32.260;2022-11-04T15:46:21;75.88;;;52.80;;
45318;SDS011;31057;48.498;32.260;2022-11-04T15:48:31;81.68;;;59.15;;
45318;SDS011;31057;48.498;32.260;2022-11-04T15:50:35;91.70;;;65.28;;
45318;SDS011;31057;48.498;32.260;2022-11-04T15:52:37;84.63;;;59.35;;
45318;SDS011;31057;48.498;32.260;2022-11-04T15:54:55;78.50;;;60.40;;
45318;SDS011;31057;48.498;32.260;2022-11-04T15:56:59;85.75;;;60.03;;
45318;SDS011;31057;48.498;32.260;2022-11-04T15:59:07;85.75;;;60.75;;
45318;SDS011;31057;48.498;32.260;2022-11-04T16:01:15;100.80;;;79.03;;
45318;SDS011;31057;48.498;32.260;2022-11-04T16:03:18;125.22;;;88.47;;
45318;SDS011;31057;48.498;32.260;2022-11-04T16:05:33;118.30;;;87.10;;
45318;SDS011;31057;48.498;32.260;2022-11-04T16:07:50;121.88;;;89.18;;
45318;SDS011;31057;48.498;32.260;2022-11-04T16:10:29;108.63;;;77.78;;
45318;SDS011;31057;48.498;32.260;2022-11-04T16:12:34;104.70;;;81.65;;
45318;SDS011;31057;48.498;32.260;2022-11-04T16:14:45;102.22;;;74.40;;
45318;SDS011;31057;48.498;32.260;2022-11-04T16:16:50;97.80;;;72.57;;
45318;SDS011;31057;48.498;32.260;2022-11-04T16:19:20;86.88;;;66.03;;
45318;SDS011;31057;48.498;32.260;2022-11-04T16:23:30;101.00;;;79.05;;
45318;SDS011;31057;48.498;32.260;2022-11-04T16:25:37;96.40;;;75.18;;
45318;SDS011;31057;48.498;32.260;2022-11-04T16:27:39;105.97;;;80.18;;
45318;SDS011;31057;48.498;32.260;2022-11-04T16:29:41;117.47;;;88.20;;
45318;SDS011;31057;48.498;32.260;2022-11-04T16:34:18;130.93;;;100.25;;
45318;SDS011;31057;48.498;32.260;2022-11-04T16:36:21;128.10;;;93.47;;
45318;SDS011;31057;48.498;32.260;2022-11-04T16:38:23;126.78;;;92.72;;
45318;SDS011;31057;48.498;32.260;2022-11-04T16:40:25;124.85;;;92.57;;
45318;SDS011;31057;48.498;32.260;2022-11-04T16:44:29;125.57;;;89.72;;
45318;SDS011;31057;48.498;32.260;2022-11-04T16:46:32;122.47;;;88.75;;
45318;SDS011;31057;48.498;32.260;2022-11-04T16:50:36;149.65;;;98.72;;
45318;SDS011;31057;48.498;32.260;2022-11-04T16:52:38;146.75;;;99.13;;
45318;SDS011;31057;48.498;32.260;2022-11-04T16:54:45;160.55;;;117.05;;
45318;SDS011;31057;48.498;32.260;2022-11-04T16:56:48;168.30;;;119.88;;
45318;SDS011;31057;48.498;32.260;2022-11-04T16:58:50;161.63;;;111.85;;
45318;SDS011;31057;48.498;32.260;2022-11-04T17:00:53;167.70;;;115.57;;
45318;SDS011;31057;48.498;32.260;2022-11-04T17:02:55;161.05;;;121.68;;
45318;SDS011;31057;48.498;32.260;2022-11-04T17:04:57;167.32;;;115.53;;
45318;SDS011;31057;48.498;32.260;2022-11-04T17:06:59;155.57;;;110.35;;
45318;SDS011;31057;48.498;32.260;2022-11-04T17:09:01;169.05;;;115.20;;
45318;SDS011;31057;48.498;32.260;2022-11-04T17:11:04;156.73;;;111.95;;
45318;SDS011;31057;48.498;32.260;2022-11-04T17:13:06;154.13;;;114.00;;
45318;SDS011;31057;48.498;32.260;2022-11-04T17:15:09;162.90;;;114.13;;
45318;SDS011;31057;48.498;32.260;2022-11-04T17:17:11;156.43;;;115.20;;
45318;SDS011;31057;48.498;32.260;2022-11-04T17:21:16;144.77;;;102.45;;
45318;SDS011;31057;48.498;32.260;2022-11-04T17:23:20;166.25;;;107.63;;
45318;SDS011;31057;48.498;32.260;2022-11-04T17:25:27;130.30;;;96.35;;
45318;SDS011;31057;48.498;32.260;2022-11-04T17:27:30;112.65;;;83.78;;
45318;SDS011;31057;48.498;32.260;2022-11-04T17:29:32;96.13;;;73.40;;
45318;SDS011;31057;48.498;32.260;2022-11-04T17:31:36;123.53;;;76.50;;
45318;SDS011;31057;48.498;32.260;2022-11-04T17:35:40;148.25;;;106.97;;
45318;SDS011;31057;48.498;32.260;2022-11-04T17:37:44;132.73;;;107.47;;
45318;SDS011;31057;48.498;32.260;2022-11-04T17:41:47;118.93;;;90.43;;
45318;SDS011;31057;48.498;32.260;2022-11-04T17:44:08;123.90;;;93.32;;
45318;SDS011;31057;48.498;32.260;2022-11-04T17:48:31;111.03;;;84.30;;
45318;SDS011;31057;48.498;32.260;2022-11-04T17:52:36;107.13;;;66.72;;
45318;SDS011;31057;48.498;32.260;2022-11-04T17:56:41;108.32;;;77.82;;
45318;SDS011;31057;48.498;32.260;2022-11-04T17:58:44;119.28;;;87.47;;
45318;SDS011;31057;48.498;32.260;2022-11-04T18:02:47;139.52;;;98.10;;
45318;SDS011;31057;48.498;32.260;2022-11-04T18:04:50;130.07;;;96.63;;
45318;SDS011;31057;48.498;32.260;2022-11-04T18:06:52;123.53;;;88.13;;
45318;SDS011;31057;48.498;32.260;2022-11-04T18:09:02;119.43;;;87.82;;
45318;SDS011;31057;48.498;32.260;2022-11-04T18:11:06;124.75;;;89.13;;
45318;SDS011;31057;48.498;32.260;2022-11-04T18:13:11;161.18;;;96.53;;
45318;SDS011;31057;48.498;32.260;2022-11-04T18:15:13;126.32;;;91.18;;
45318;SDS011;31057;48.498;32.260;2022-11-04T18:17:19;117.63;;;86.93;;
45318;SDS011;31057;48.498;32.260;2022-11-04T18:19:25;176.32;;;112.95;;
45318;SDS011;31057;48.498;32.260;2022-11-04T18:21:28;142.38;;;106.03;;
45318;SDS011;31057;48.498;32.260;2022-11-04T18:23:31;167.80;;;106.75;;
45318;SDS011;31057;48.498;32.260;2022-11-04T18:27:35;149.65;;;107.75;;
45318;SDS011;31057;48.498;32.260;2022-11-04T18:29:39;220.77;;;132.18;;
45318;SDS011;31057;48.498;32.260;2022-11-04T18:33:49;147.65;;;107.13;;
45318;SDS011;31057;48.498;32.260;2022-11-04T18:37:53;146.30;;;106.37;;
45318;SDS011;31057;48.498;32.260;2022-11-04T18:41:57;193.48;;;117.60;;
45318;SDS011;31057;48.498;32.260;2022-11-04T18:43:59;146.23;;;97.22;;
45318;SDS011;31057;48.498;32.260;2022-11-04T18:46:05;154.07;;;101.18;;
45318;SDS011;31057;48.498;32.260;2022-11-04T18:48:11;126.53;;;93.03;;
45318;SDS011;31057;48.498;32.260;2022-11-04T18:52:15;106.45;;;80.90;;
45318;SDS011;31057;48.498;32.260;2022-11-04T18:54:17;124.28;;;82.72;;
45318;SDS011;31057;48.498;32.260;2022-11-04T18:56:21;109.55;;;78.43;;
45318;SDS011;31057;48.498;32.260;2022-11-04T18:58:23;143.27;;;91.97;;
45318;SDS011;31057;48.498;32.260;2022-11-04T19:00:25;173.25;;;108.13;;
45318;SDS011;31057;48.498;32.260;2022-11-04T19:02:28;137.98;;;92.03;;
45318;SDS011;31057;48.498;32.260;2022-11-04T19:04:33;149.27;;;97.18;;
45318;SDS011;31057;48.498;32.260;2022-11-04T19:08:42;159.07;;;98.38;;
45318;SDS011;31057;48.498;32.260;2022-11-04T19:10:47;170.60;;;106.82;;
45318;SDS011;31057;48.498;32.260;2022-11-04T19:13:01;165.35;;;105.63;;
45318;SDS011;31057;48.498;32.260;2022-11-04T19:15:18;161.30;;;104.70;;
45318;SDS011;31057;48.498;32.260;2022-11-04T19:21:25;121.38;;;75.53;;
45318;SDS011;31057;48.498;32.260;2022-11-04T19:23:29;118.32;;;73.07;;
45318;SDS011;31057;48.498;32.260;2022-11-04T19:25:32;121.65;;;75.68;;
45318;SDS011;31057;48.498;32.260;2022-11-04T19:29:36;134.38;;;76.80;;
45318;SDS011;31057;48.498;32.260;2022-11-04T19:33:41;142.75;;;86.28;;
45318;SDS011;31057;48.498;32.260;2022-11-04T19:35:44;158.40;;;98.05;;
45318;SDS011;31057;48.498;32.260;2022-11-04T19:39:48;197.93;;;119.32;;
45318;SDS011;31057;48.498;32.260;2022-11-04T19:44:12;199.50;;;112.78;;
45318;SDS011;31057;48.498;32.260;2022-11-04T19:46:16;165.45;;;105.80;;
45318;SDS011;31057;48.498;32.260;2022-11-04T19:48:18;136.77;;;81.47;;
45318;SDS011;31057;48.498;32.260;2022-11-04T19:50:20;109.30;;;71.00;;
45318;SDS011;31057;48.498;32.260;2022-11-04T19:52:22;120.25;;;75.55;;
45318;SDS011;31057;48.498;32.260;2022-11-04T19:54:25;126.28;;;78.75;;
45318;SDS011;31057;48.498;32.260;2022-11-04T19:56:28;124.57;;;73.03;;
45318;SDS011;31057;48.498;32.260;2022-11-04T19:58:33;126.35;;;84.55;;
45318;SDS011;31057;48.498;32.260;2022-11-04T20:00:37;132.02;;;80.68;;
45318;SDS011;31057;48.498;32.260;2022-11-04T20:02:41;146.55;;;90.43;;
45318;SDS011;31057;48.498;32.260;2022-11-04T20:04:43;165.68;;;100.75;;
45318;SDS011;31057;48.498;32.260;2022-11-04T20:06:47;179.70;;;111.22;;
45318;SDS011;31057;48.498;32.260;2022-11-04T20:08:49;161.32;;;104.90;;
45318;SDS011;31057;48.498;32.260;2022-11-04T20:10:53;161.68;;;107.85;;
45318;SDS011;31057;48.498;32.260;2022-11-04T20:12:54;154.90;;;102.07;;
45318;SDS011;31057;48.498;32.260;2022-11-04T20:15:15;178.18;;;106.30;;
45318;SDS011;31057;48.498;32.260;2022-11-04T20:17:16;152.90;;;96.70;;
45318;SDS011;31057;48.498;32.260;2022-11-04T20:19:20;152.30;;;93.85;;
45318;SDS011;31057;48.498;32.260;2022-11-04T20:21:23;138.98;;;88.78;;
45318;SDS011;31057;48.498;32.260;2022-11-04T20:23:27;142.15;;;93.55;;
45318;SDS011;31057;48.498;32.260;2022-11-04T20:25:29;154.50;;;106.25;;
45318;SDS011;31057;48.498;32.260;2022-11-04T20:27:31;122.38;;;74.97;;
45318;SDS011;31057;48.498;32.260;2022-11-04T20:31:35;97.20;;;63.47;;
45318;SDS011;31057;48.498;32.260;2022-11-04T20:33:39;116.70;;;73.22;;
45318;SDS011;31057;48.498;32.260;2022-11-04T20:35:41;142.15;;;85.40;;
45318;SDS011;31057;48.498;32.260;2022-11-04T20:37:43;143.30;;;90.05;;
45318;SDS011;31057;48.498;32.260;2022-11-04T20:39:47;146.98;;;90.38;;
45318;SDS011;31057;48.498;32.260;2022-11-04T20:41:49;139.27;;;85.43;;
45318;SDS011;31057;48.498;32.260;2022-11-04T20:45:53;116.43;;;75.10;;
45318;SDS011;31057;48.498;32.260;2022-11-04T20:47:55;107.03;;;66.50;;
45318;SDS011;31057;48.498;32.260;2022-11-04T20:49:56;110.50;;;65.15;;
45318;SDS011;31057;48.498;32.260;2022-11-04T20:51:58;108.18;;;66.88;;
45318;SDS011;31057;48.498;32.260;2022-11-04T20:54:02;118.85;;;72.80;;
45318;SDS011;31057;48.498;32.260;2022-11-04T20:56:07;117.82;;;71.32;;
45318;SDS011;31057;48.498;32.260;2022-11-04T20:58:11;118.28;;;71.38;;
45318;SDS011;31057;48.498;32.260;2022-11-04T21:00:13;102.88;;;66.78;;
45318;SDS011;31057;48.498;32.260;2022-11-04T21:02:16;101.38;;;64.28;;
45318;SDS011;31057;48.498;32.260;2022-11-04T21:04:18;99.40;;;64.90;;